Stations météo

Publicité
Uccle, Belgique (6447): Température de l'air & dewpoint: 06.08.2020 07:00:00 - 12.08.2020 07:00:00 (CEST)Uccle, Belgique (6447): Vitesse du vent & gusts: 06.08.2020 07:00:00 - 12.08.2020 07:00:00 (CEST)Uccle, Belgique (6447): Direction du vent: 06.08.2020 07:00:00 - 12.08.2020 07:00:00 (CEST)Uccle, Belgique (6447): reduced air pressure: 06.08.2020 07:00:00 - 12.08.2020 07:00:00 (CEST)Uccle, Belgique (6447): Ensoleillement: 06.08.2020 07:00:00 - 12.08.2020 07:00:00 (CEST)Uccle, Belgique (6447): Quantités de précipitations: 06.08.2020 07:00:00 - 12.08.2020 07:00:00 (CEST)
Date & Time tt [°C] td [°C] ff [km/h] ff [knt] fx [km/h] fx [knt] dd ppp [hPa] sd [min] rr [mm]
12.08.2020 07:00:00 - - - - - - - - - -
12.08.2020 06:00:00 - - - - - - - - - -
12.08.2020 05:00:00 - - - - - - - - - -
12.08.2020 04:00:00 - - - - - - - - - -
12.08.2020 03:00:00 - - - - - - - - - -
12.08.2020 02:00:00 - - - - - - - - - -
12.08.2020 01:00:00 - - - - - - - - - -
12.08.2020 00:00:00 - - - - - - - - - -
11.08.2020 23:00:00 - - - - - - - - - -
11.08.2020 22:00:00 - - - - - - - - - -
11.08.2020 21:00:00 - - - - - - - - - -
11.08.2020 20:00:00 - - - - - - - - - -
11.08.2020 19:00:00 - - - - - - - - - -
11.08.2020 18:00:00 - - - - - - - - - -
11.08.2020 17:00:00 - - - - - - - - - -
11.08.2020 16:00:00 - - - - - - - - - -
11.08.2020 15:00:00 - - - - - - - - - -
11.08.2020 14:00:00 - - - - - - - - - -
11.08.2020 13:00:00 - - - - - - - - - -
11.08.2020 12:00:00 - - - - - - - - - -
11.08.2020 11:00:00 - - - - - - - - - -
11.08.2020 10:00:00 - - - - - - - - - -
11.08.2020 09:00:00 - - - - - - - - - -
11.08.2020 08:00:00 - - - - - - - - - -
11.08.2020 07:00:00 - - - - - - - - - -
11.08.2020 06:00:00 - - - - - - - - - -
11.08.2020 05:00:00 - - - - - - - - - -
11.08.2020 04:00:00 - - - - - - - - - -
11.08.2020 03:00:00 - - - - - - - - - -
11.08.2020 02:00:00 - - - - - - - - - -
11.08.2020 01:00:00 - - - - - - - - - -
11.08.2020 00:00:00 - - - - - - - - - -
10.08.2020 23:00:00 - - - - - - - - - -
10.08.2020 22:00:00 - - - - - - - - - -
10.08.2020 21:00:00 - - - - - - - - - -
10.08.2020 20:00:00 - - - - - - - - - -
10.08.2020 19:00:00 - - - - - - - - - -
10.08.2020 18:00:00 - - - - - - - - - -
10.08.2020 17:00:00 - - - - - - - - - -
10.08.2020 16:00:00 - - - - - - - - - -
10.08.2020 15:00:00 - - - - - - - - - -
10.08.2020 14:00:00 - - - - - - - - - -
10.08.2020 13:00:00 - - - - - - - - - -
10.08.2020 12:00:00 - - - - - - - - - -
10.08.2020 11:00:00 - - - - - - - - - -
10.08.2020 10:00:00 - - - - - - - - - -
10.08.2020 09:00:00 - - - - - - - - - -
10.08.2020 08:00:00 - - - - - - - - - -
10.08.2020 07:00:00 20,8 15,8 9 5 17 9 ESE 1014,2 0 0,0
10.08.2020 06:00:00 21,6 15,8 8 5 16 9 E 1014,2 0 0,0
10.08.2020 05:00:00 21,2 16,4 9 5 11 6 N 1014,4 0 0,0
10.08.2020 04:00:00 22,0 16,0 7 4 10 5 NNE 1014,8 0 0,0
10.08.2020 03:00:00 22,2 16,2 9 5 11 6 SSE 1014,7 0 0,0
10.08.2020 02:00:00 22,8 15,5 7 4 13 7 SE 1014,8 0 0,0
10.08.2020 01:00:00 23,9 15,2 4 2 18 10 ESE 1014,9 0 0,0
10.08.2020 00:00:00 24,7 15,2 9 5 19 11 E 1014,4 0 0,0
09.08.2020 23:00:00 25,3 15,7 10 5 22 12 E 1014,6 0 0,0
09.08.2020 22:00:00 26,5 15,6 9 5 24 13 E 1014,6 0 0,0
09.08.2020 21:00:00 28,8 15,9 10 5 20 11 E 1014,4 19 0,0
09.08.2020 20:00:00 31,4 14,6 7 4 16 9 ENE 1014,0 60 0,0
09.08.2020 19:00:00 32,7 13,9 9 5 16 8 NE 1014,0 60 0,0
09.08.2020 18:00:00 32,7 15,2 10 5 19 10 NE 1014,6 60 0,0
09.08.2020 17:00:00 32,2 14,8 8 4 26 14 ENE 1015,0 60 0,0
09.08.2020 16:00:00 31,7 15,7 13 7 24 13 ENE 1015,6 60 0,0
09.08.2020 15:00:00 29,5 18,4 9 5 20 11 ENE 1016,2 50 0,0
09.08.2020 14:00:00 26,3 18,8 14 8 28 15 E 1016,6 40 0,0
09.08.2020 13:00:00 22,3 18,3 11 6 28 15 E 1017,2 0 1,1
09.08.2020 12:00:00 21,2 17,6 14 7 36 19 E 1017,5 0 6,3
09.08.2020 11:00:00 21,6 18,4 10 6 18 10 E 1018,3 0 3,9
09.08.2020 10:00:00 25,5 16,4 6 4 16 9 NE 1017,4 31 0,5
09.08.2020 09:00:00 24,8 15,4 6 3 18 10 E 1017,6 13 0,0
09.08.2020 08:00:00 24,0 14,8 7 4 18 10 E 1017,4 19 0,0
09.08.2020 07:00:00 23,2 14,0 9 5 18 10 E 1017,1 0 0,0
09.08.2020 06:00:00 23,1 13,9 8 4 18 10 E 1017,1 0 0,0
09.08.2020 05:00:00 24,2 13,8 8 5 19 11 ENE 1017,3 0 0,0
09.08.2020 04:00:00 25,1 13,5 10 5 16 9 ENE 1017,4 0 0,0
09.08.2020 03:00:00 26,4 12,9 10 5 20 11 ENE 1017,5 0 0,0
09.08.2020 02:00:00 26,9 13,1 11 6 25 13 ENE 1017,6 0 0,0
09.08.2020 01:00:00 27,7 13,3 14 8 23 13 NE 1017,7 0 0,0
09.08.2020 00:00:00 28,5 12,9 12 6 21 11 NE 1018,0 0 0,0
08.08.2020 23:00:00 29,4 12,2 10 6 24 13 NE 1017,9 0 0,0
08.08.2020 22:00:00 30,7 10,7 16 8 27 15 NNE 1017,8 0 0,0
08.08.2020 21:00:00 31,7 11,5 8 5 18 10 N 1017,3 0 0,0
08.08.2020 20:00:00 33,0 10,0 11 6 18 10 N 1017,2 7 0,0
08.08.2020 19:00:00 34,5 9,3 10 6 19 11 NNE 1017,2 22 0,0
08.08.2020 18:00:00 35,4 10,1 8 5 18 10 NE 1017,3 29 0,0
08.08.2020 17:00:00 34,9 8,9 6 4 19 11 ENE 1017,7 48 0,0
08.08.2020 16:00:00 35,4 9,4 9 5 16 9 NE 1018,0 60 0,0
08.08.2020 15:00:00 34,8 9,6 8 4 18 10 NNE 1018,3 60 0,0
08.08.2020 14:00:00 34,1 10,1 7 4 21 11 ENE 1018,4 60 0,0
08.08.2020 13:00:00 33,8 9,5 8 4 17 9 ENE 1018,7 60 0,0
08.08.2020 12:00:00 32,5 11,2 6 3 12 6 NE 1019,0 60 0,0
08.08.2020 11:00:00 30,9 12,0 4 2 7 4 NNE 1019,3 60 0,0
08.08.2020 10:00:00 28,4 12,3 4 2 4 2 N 1019,2 60 0,0
08.08.2020 09:00:00 25,0 13,5 0 0 8 4 N 1019,2 60 0,0
08.08.2020 08:00:00 20,9 12,0 7 4 9 5 SSE 1019,2 60 0,0
08.08.2020 07:00:00 19,6 12,2 4 2 7 4 S 1019,1 10 0,0
08.08.2020 06:00:00 19,7 12,3 5 3 7 4 ESE 1018,8 0 0,0
08.08.2020 05:00:00 20,8 10,8 4 2 10 5 SE 1018,7 0 0,0
08.08.2020 04:00:00 21,3 10,9 6 3 11 6 E 1018,6 0 0,0
08.08.2020 03:00:00 21,5 12,2 6 3 11 6 E 1018,7 0 0,0
08.08.2020 02:00:00 22,5 10,9 7 4 10 5 E 1018,8 0 0,0
08.08.2020 01:00:00 23,2 11,8 7 4 13 7 E 1018,6 0 0,0
08.08.2020 00:00:00 24,0 13,0 9 5 16 9 ENE 1018,5 0 0,0
07.08.2020 23:00:00 24,7 12,4 11 6 15 8 NE 1018,4 0 0,0
07.08.2020 22:00:00 26,2 11,4 8 5 10 6 ENE 1018,3 0 0,0
07.08.2020 21:00:00 29,2 10,3 7 4 12 7 ENE 1017,7 21 0,0
07.08.2020 20:00:00 32,8 8,9 7 4 13 7 E 1017,4 60 0,0
07.08.2020 19:00:00 33,4 9,1 6 3 18 10 E 1017,5 60 0,0
07.08.2020 18:00:00 33,7 9,4 8 4 19 10 E 1017,7 51 0,0
07.08.2020 17:00:00 33,8 9,7 11 6 22 12 ENE 1018,0 48 0,0
07.08.2020 16:00:00 33,2 9,3 9 5 23 12 E 1018,4 46 0,0
07.08.2020 15:00:00 32,7 10,0 8 4 17 9 ESE 1018,6 47 0,0
07.08.2020 14:00:00 32,6 11,1 7 4 23 12 NE 1018,9 51 0,0
07.08.2020 13:00:00 31,9 11,2 6 3 17 9 SE 1019,2 54 0,0
07.08.2020 12:00:00 31,0 10,3 6 4 13 7 E 1019,8 52 0,0
07.08.2020 11:00:00 29,4 13,1 5 3 13 7 SW 1019,8 51 0,0
07.08.2020 10:00:00 27,9 13,7 5 3 14 7 SSW 1019,9 57 0,0
07.08.2020 09:00:00 24,7 13,0 5 3 12 7 S 1019,8 59 0,0
07.08.2020 08:00:00 20,5 12,2 4 2 15 8 S 1019,8 56 0,0
07.08.2020 07:00:00 19,7 11,2 10 5 18 10 SSE 1019,6 12 0,0
07.08.2020 06:00:00 20,8 10,8 12 7 - - SE 1019,1 0 -
07.08.2020 05:00:00 20,2 11,2 12 6 16 9 SE 1019,0 0 0,0
07.08.2020 04:00:00 20,4 10,5 8 4 11 6 ESE 1019,0 0 0,0
07.08.2020 03:00:00 20,2 10,4 5 3 8 4 E 1019,1 0 0,0
07.08.2020 02:00:00 21,3 10,1 4 2 12 7 S 1019,2 0 0,0
07.08.2020 01:00:00 21,9 10,6 7 4 16 9 E 1019,2 0 0,0
07.08.2020 00:00:00 22,4 10,8 6 4 13 7 E 1019,0 0 0,0
06.08.2020 23:00:00 23,3 11,1 7 4 14 8 E 1018,7 0 0,0
06.08.2020 22:00:00 24,8 11,2 6 3 11 6 E 1018,4 0 0,0
06.08.2020 21:00:00 27,8 10,2 6 4 11 6 ENE 1018,0 21 0,0
06.08.2020 20:00:00 30,8 8,5 4 2 11 6 E 1017,6 60 0,0
06.08.2020 19:00:00 31,5 7,5 5 3 16 9 ESE 1017,6 60 0,0
06.08.2020 18:00:00 31,9 7,3 8 4 19 10 E 1017,7 60 0,0
06.08.2020 17:00:00 31,8 6,9 11 6 23 12 S 1017,8 60 0,0
06.08.2020 16:00:00 31,5 6,6 11 6 21 11 S 1017,9 60 0,0
06.08.2020 15:00:00 31,1 6,6 11 6 25 14 S 1018,1 59 0,0
06.08.2020 14:00:00 29,9 6,3 11 6 26 14 S 1018,5 53 0,0
06.08.2020 13:00:00 29,3 7,2 9 5 23 13 SSW 1018,8 60 0,0
06.08.2020 12:00:00 27,7 8,9 13 7 27 15 SSE 1018,9 60 0,0
06.08.2020 11:00:00 25,2 9,3 11 6 17 9 SE 1019,1 60 0,0
06.08.2020 10:00:00 23,9 8,3 9 5 15 8 S 1019,0 60 0,0
06.08.2020 09:00:00 21,7 9,9 5 3 9 5 SSE 1019,0 59 0,0
06.08.2020 08:00:00 17,3 10,7 4 2 10 5 E 1018,7 60 0,0
06.08.2020 07:00:00 15,7 10,2 8 4 10 5 E 1018,4 9 0,0

tt = Température de l'air
td = dewpoint
ff = Vitesse du vent
fx = gusts
dd = Direction du vent
ppp = reduced air pressure
sd = Ensoleillement
rr = Quantités de précipitations

stations d'obs. à proximité